Time;durP1;ratioP1;P1;durP2;ratioP2;P2;SDS_P1;SDS_P2;PMS_P1;PMS_P2;Temp;Humidity;BMP_temperature;BMP_pressure;BME280_temperature;BME280_humidity;BME280_pressure;Samples;Min_cycle;Max_cycle;Signal;HPM_P1;HPM_P2
2024/01/08 00:07:53;;;;;;;0.70;0.50;;;;;;;;;;21126925;28;20313;-85
2024/01/08 00:17:55;;;;;;;0.43;0.33;;;;;;;;;;21116016;28;20632;-86
2024/01/08 00:27:57;;;;;;;0.40;0.40;;;;;;;;;;21128663;27;20294;-85
2024/01/08 00:37:59;;;;;;;0.63;0.63;;;;;;;;;;21129541;28;20269;-83
2024/01/08 00:48:00;;;;;;;0.47;0.40;;;;;;;;;;21192403;27;20227;-85
2024/01/08 00:58:02;;;;;;;0.33;0.33;;;;;;;;;;21121542;28;20225;-85
2024/01/08 01:08:04;;;;;;;0.47;0.43;;;;;;;;;;21137517;27;20232;-85
2024/01/08 01:18:06;;;;;;;2.40;1.43;;;;;;;;;;21141426;28;20218;-84
2024/01/08 01:28:07;;;;;;;2.30;1.17;;;;;;;;;;21182573;27;20211;-82
2024/01/08 01:38:09;;;;;;;1.37;0.93;;;;;;;;;;21138820;28;20208;-84
2024/01/08 01:48:12;;;;;;;1.07;0.80;;;;;;;;;;21156054;28;20293;-81
2024/01/08 01:58:15;;;;;;;1.00;0.50;;;1.20;99.90;;;;;;21179114;28;20273;-84
2024/01/08 02:08:17;;;;;;;0.30;0.30;;;;;;;;;;21125384;28;20277;-83
2024/01/08 02:18:19;;;;;;;1.30;0.70;;;;;;;;;;21111813;28;20208;-83
2024/01/08 02:28:21;;;;;;;1.03;0.50;;;;;;;;;;21105131;28;20305;-84
2024/01/08 02:38:23;;;;;;;0.43;0.43;;;;;;;;;;21117649;28;20273;-84
2024/01/08 02:48:25;;;;;;;0.30;0.30;;;;;;;;;;21141131;28;20328;-84
2024/01/08 02:58:27;;;;;;;0.50;0.33;;;;;;;;;;21129909;27;20207;-82
2024/01/08 03:08:29;;;;;;;0.40;0.40;;;;;;;;;;21113735;27;20224;-83
2024/01/08 03:18:30;;;;;;;0.87;0.47;;;;;;;;;;21111389;28;20217;-82
2024/01/08 03:28:32;;;;;;;0.40;0.30;;;;;;;;;;21077823;28;20236;-83
2024/01/08 03:38:35;;;;;;;0.27;0.27;;;;;;;;;;21109916;28;20265;-87
2024/01/08 03:48:36;;;;;;;0.23;0.23;;;;;;;;;;21116315;28;20220;-84
2024/01/08 03:58:38;;;;;;;0.30;0.30;;;;;;;;;;21132539;28;20623;-86
2024/01/08 04:08:40;;;;;;;0.40;0.40;;;;;;;;;;21099112;28;20256;-86
2024/01/08 04:18:42;;;;;;;0.20;0.20;;;;;;;;;;21139120;27;20517;-85
2024/01/08 04:28:44;;;;;;;0.30;0.30;;;;;;;;;;21130599;27;20224;-86
2024/01/08 04:38:46;;;;;;;0.70;0.40;;;;;;;;;;21151827;27;20216;-85
2024/01/08 04:48:48;;;;;;;0.30;0.30;;;;;;;;;;21138632;28;20220;-86
2024/01/08 04:58:51;;;;;;;0.40;0.40;;;;;;;;;;21124100;28;20216;-87
2024/01/08 05:08:52;;;;;;;0.40;0.40;;;;;;;;;;21120617;27;20266;-83
2024/01/08 05:18:54;;;;;;;0.43;0.43;;;;;;;;;;21166294;27;20215;-83
2024/01/08 05:28:56;;;;;;;0.67;0.50;;;;;;;;;;21138973;27;20285;-82
2024/01/08 05:38:59;;;;;;;0.30;0.30;;;;;;;;;;21147027;27;20242;-86
2024/01/08 05:49:01;;;;;;;0.60;0.40;;;;;;;;;;21112345;28;20277;-86
2024/01/08 05:59:03;;;;;;;0.37;0.37;;;;;;;;;;21118996;28;20216;-85
2024/01/08 06:09:06;;;;;;;0.40;0.40;;;;;;;;;;21134565;28;20220;-84
2024/01/08 06:19:08;;;;;;;0.57;0.43;;;;;;;;;;21145948;28;20250;-85
2024/01/08 06:29:11;;;;;;;0.43;0.43;;;;;;;;;;21126910;27;20240;-85
2024/01/08 06:39:13;;;;;;;0.80;0.60;;;;;;;;;;21128770;28;20215;-85
2024/01/08 06:49:16;;;;;;;0.30;0.30;;;;;;;;;;21079108;28;20276;-84
2024/01/08 06:59:18;;;;;;;0.63;0.50;;;;;;;;;;21128281;28;20228;-85
2024/01/08 07:09:20;;;;;;;0.50;0.40;;;;;;;;;;21128804;28;20232;-84
2024/01/08 07:19:22;;;;;;;0.50;0.50;;;;;;;;;;21128196;28;20261;-85
2024/01/08 07:29:24;;;;;;;0.43;0.43;;;;;;;;;;21151751;28;20212;-82
2024/01/08 07:39:26;;;;;;;0.73;0.63;;;;;;;;;;21124356;28;20233;-84
2024/01/08 07:49:28;;;;;;;0.60;0.50;;;;;;;;;;21102150;28;20232;-84
2024/01/08 07:59:30;;;;;;;0.40;0.30;;;;;;;;;;21116772;28;20684;-84
2024/01/08 08:09:32;;;;;;;2.00;0.80;;;;;;;;;;21120222;28;20231;-83
2024/01/08 08:19:33;;;;;;;1.47;0.90;;;;;;;;;;21113014;28;20216;-82
2024/01/08 08:29:46;;;;;;;3.70;1.90;;;0.80;99.90;;;;;;21128992;28;20689;-82
2024/01/08 08:39:47;;;;;;;6.73;2.70;;;;;;;;;;21127807;28;20243;-83
2024/01/08 08:49:49;;;;;;;0.70;0.60;;;;;;;;;;21099920;28;20246;-82
2024/01/08 08:59:51;;;;;;;0.50;0.50;;;;;;;;;;21113254;27;20212;-82
2024/01/08 09:09:53;;;;;;;1.20;0.70;;;;;;;;;;21108099;27;20249;-84
2024/01/08 09:19:55;;;;;;;0.30;0.30;;;;;;;;;;21146355;27;20216;-84
2024/01/08 09:29:57;;;;;;;1.67;1.17;;;;;;;;;;21144836;28;20221;-83
2024/01/08 09:39:58;;;;;;;0.77;0.53;;;;;;;;;;21136687;28;20212;-82
2024/01/08 09:50:01;;;;;;;1.43;0.77;;;0.80;99.90;;;;;;21126579;28;20258;-82
2024/01/08 10:00:04;;;;;;;0.97;0.60;;;;;;;;;;21132410;28;20277;-82
2024/01/08 10:10:14;;;;;;;0.47;0.37;;;;;;;;;;21115280;28;20289;-85
2024/01/08 10:20:16;;;;;;;0.90;0.50;;;;;;;;;;21125662;28;20212;-83
2024/01/08 10:30:18;;;;;;;0.70;0.60;;;;;;;;;;21117555;28;20256;-84
2024/01/08 10:40:20;;;;;;;0.90;0.50;;;;;;;;;;21118956;28;20212;-83
2024/01/08 10:50:23;;;;;;;1.40;1.03;;;;;;;;;;21085069;28;20224;-83
2024/01/08 11:00:27;;;;;;;0.80;0.77;;;;;;;;;;21131508;28;20353;-82
2024/01/08 11:10:29;;;;;;;3.17;0.80;;;;;;;;;;21105583;27;20232;-82
2024/01/08 11:20:34;;;;;;;1.13;0.80;;;;;;;;;;21095984;28;20225;-82
2024/01/08 11:30:36;;;;;;;1.43;0.97;;;;;;;;;;21117328;27;20228;-85
2024/01/08 11:40:40;;;;;;;1.00;0.60;;;;;;;;;;21100562;28;20688;-82
2024/01/08 11:50:42;;;;;;;1.17;0.67;;;;;;;;;;21113552;27;20216;-83
2024/01/08 12:00:43;;;;;;;2.27;1.10;;;;;;;;;;21124589;28;20213;-83
2024/01/08 12:10:53;;;;;;;0.57;0.50;;;;;;;;;;21101436;28;20254;-82
2024/01/08 12:20:55;;;;;;;1.00;0.80;;;1.30;99.90;;;;;;21103675;28;20252;-84
2024/01/08 12:31:01;;;;;;;0.70;0.70;;;;;;;;;;21129524;28;20220;-83
2024/01/08 12:41:04;;;;;;;0.70;0.60;;;;;;;;;;21146255;28;20623;-85
2024/01/08 12:51:09;;;;;;;0.80;0.70;;;;;;;;;;21135431;28;20232;-83
2024/01/08 13:01:11;;;;;;;0.37;0.37;;;;;;;;;;21164089;27;20220;-82
2024/01/08 13:11:13;;;;;;;1.00;0.70;;;;;;;;;;21162763;27;20712;-82
2024/01/08 13:21:15;;;;;;;1.27;0.90;;;;;;;;;;21119408;28;20928;-81
2024/01/08 13:31:17;;;;;;;0.63;0.50;;;;;;;;;;21115589;28;20274;-83
2024/01/08 13:41:19;;;;;;;1.03;0.80;;;;;;;;;;21107647;27;20269;-83
2024/01/08 13:51:21;;;;;;;2.00;1.10;;;;;;;;;;21104485;28;20588;-82
2024/01/08 14:01:23;;;;;;;1.10;0.70;;;;;;;;;;21155827;27;20241;-84
2024/01/08 14:11:25;;;;;;;0.90;0.67;;;;;;;;;;21119833;28;20227;-84
2024/01/08 14:21:26;;;;;;;1.07;0.67;;;;;;;;;;21128943;28;20595;-82
2024/01/08 14:31:28;;;;;;;2.43;1.00;;;;;;;;;;21081391;28;20584;-84
2024/01/08 14:41:30;;;;;;;0.90;0.57;;;;;;;;;;21138875;27;20207;-83
2024/01/08 14:51:32;;;;;;;1.00;0.70;;;;;;;;;;21123455;27;20709;-83
2024/01/08 15:01:34;;;;;;;1.67;1.00;;;0.40;99.90;;;;;;21113127;27;20236;-83
2024/01/08 15:11:36;;;;;;;1.23;1.10;;;0.30;99.90;;;;;;21134235;27;20743;-83
2024/01/08 15:21:38;;;;;;;1.17;0.90;;;;;;;;;;21085090;28;20273;-82
2024/01/08 15:31:39;;;;;;;1.00;0.80;;;;;;;;;;21128813;28;20269;-82
2024/01/08 15:41:42;;;;;;;0.77;0.67;;;;;;;;;;21147279;28;20217;-83
2024/01/08 15:51:43;;;;;;;1.47;1.10;;;;;;;;;;21144587;28;20678;-84
2024/01/08 16:01:45;;;;;;;1.00;0.70;;;;;;;;;;21169665;28;20555;-82
2024/01/08 16:11:47;;;;;;;0.90;0.80;;;;;;;;;;21137498;28;20253;-82
2024/01/08 16:21:49;;;;;;;3.10;1.60;;;;;;;;;;21147220;27;20200;-82
2024/01/08 16:31:51;;;;;;;1.30;1.17;;;;;;;;;;21146998;28;20236;-83
2024/01/08 16:41:53;;;;;;;1.17;0.90;;;;;;;;;;21143143;27;20207;-82
2024/01/08 16:51:54;;;;;;;3.07;1.50;;;;;;;;;;21126681;27;20857;-83
2024/01/08 17:01:56;;;;;;;1.67;1.03;;;;;;;;;;21115769;28;20273;-81
2024/01/08 17:12:00;;;;;;;2.03;1.30;;;;;;;;;;21124704;28;20257;-82
2024/01/08 17:22:03;;;;;;;2.17;1.43;;;;;;;;;;21090188;27;20685;-83
2024/01/08 17:32:05;;;;;;;2.87;1.90;;;;;;;;;;21129281;27;20298;-84
2024/01/08 17:42:07;;;;;;;1.93;1.20;;;;;;;;;;21115210;28;20626;-84
2024/01/08 17:52:09;;;;;;;1.60;1.10;;;;;;;;;;21117953;28;20228;-86
2024/01/08 18:02:10;;;;;;;2.07;1.87;;;;;;;;;;21153731;27;20262;-86
2024/01/08 18:12:12;;;;;;;2.07;1.40;;;;;;;;;;21145311;27;20228;-86
2024/01/08 18:22:15;;;;;;;2.10;1.50;;;;;;;;;;21158889;27;20212;-85
2024/01/08 18:32:17;;;;;;;3.07;1.97;;;;;;;;;;21154158;27;20858;-86
2024/01/08 18:42:23;;;;;;;1.13;1.03;;;;;;;;;;21119286;27;20217;-86
2024/01/08 18:52:25;;;;;;;1.67;1.20;;;;;;;;;;21159677;27;20228;-85
2024/01/08 19:02:27;;;;;;;11.80;1.40;;;;;;;;;;21133381;27;20215;-85
2024/01/08 19:12:30;;;;;;;1.70;1.27;;;;;;;;;;21157646;27;20223;-85
2024/01/08 19:22:32;;;;;;;1.67;1.40;;;;;;;;;;21120631;27;20212;-85
2024/01/08 19:32:34;;;;;;;3.50;1.67;;;;;;;;;;21113091;28;20224;-85
2024/01/08 19:42:36;;;;;;;1.20;1.10;;;;;;;;;;21132048;27;20224;-84
2024/01/08 20:03:02;;;;;;;1.23;1.07;;;;;;;;;;21114784;27;20922;-71
2024/01/08 20:13:04;;;;;;;2.17;1.17;;;;;;;;;;21061462;28;20270;-71
2024/01/08 20:23:06;;;;;;;1.30;1.10;;;;;;;;;;21058093;28;20212;-71
2024/01/08 20:33:08;;;;;;;2.13;1.60;;;;;;;;;;21068401;28;20221;-71
2024/01/08 20:43:10;;;;;;;1.47;1.10;;;;;;;;;;21061001;28;20200;-71
2024/01/08 20:53:12;;;;;;;1.33;1.23;;;;;;;;;;21026795;28;20209;-71
2024/01/08 21:03:17;;;;;;;2.00;1.13;;;;;;;;;;21058147;22;21162;-67
2024/01/08 21:13:19;;;;;;;1.33;1.20;;;;;;;;;;20846122;28;20693;-67
2024/01/08 21:23:21;;;;;;;0.60;0.60;;;;;;;;;;20788137;28;20250;-67
2024/01/08 21:33:23;;;;;;;2.10;1.33;;;;;;;;;;20793343;28;20245;-67
2024/01/08 21:43:25;;;;;;;0.97;0.97;;;;;;;;;;20808145;28;20253;-67
2024/01/08 21:53:27;;;;;;;2.50;1.53;;;;;;;;;;20790004;28;20230;-67
2024/01/08 22:03:28;;;;;;;1.17;0.90;;;;;;;;;;20791968;28;20230;-67
2024/01/08 22:13:31;;;;;;;1.17;0.93;;;;;;;;;;20794574;28;20222;-67
2024/01/08 22:23:33;;;;;;;1.07;0.97;;;;;;;;;;20795819;28;20567;-67
2024/01/08 22:33:34;;;;;;;1.93;1.60;;;;;;;;;;20795264;28;20249;-67
2024/01/08 22:43:36;;;;;;;1.13;0.97;;;;;;;;;;20786222;28;20227;-67
2024/01/08 22:53:38;;;;;;;1.67;1.10;;;;;;;;;;20786408;28;20206;-67
2024/01/08 23:03:43;;;;;;;0.90;0.80;;;;;;;;;;20807013;28;20222;-67
2024/01/08 23:13:44;;;;;;;1.40;0.90;;;;;;;;;;20798277;28;20281;-67
2024/01/08 23:23:46;;;;;;;1.83;1.10;;;;;;;;;;20794293;28;20226;-66
2024/01/08 23:33:48;;;;;;;3.23;1.63;;;;;;;;;;20782562;28;20214;-67
2024/01/08 23:43:50;;;;;;;1.33;1.20;;;;;;;;;;20782794;28;20226;-66
2024/01/08 23:53:52;;;;;;;1.60;1.20;;;;;;;;;;20788230;28;20819;-66
